Terminal Aerodrome Forecast
Issued by NWS Jackson, MS

Current Version | Previous Version | Text Only | Print | Product List | Glossary On
Versions: 1 2 3 4 5 6 7 8 9 10 11 12 13 14 15 16 17 18 19 20
000
FTUS44 KMEG 302336
TAFTUP
TAF
KTUP 302336Z 3100/3124 VRB05KT P6SM VCTS SCT035CB SCT250
     FM310100 00000KT P6SM SCT250
      TEMPO 3108/3112 2SM BR SCT003
     FM311600 23006KT P6SM VCTS SCT040CB BKN250=

USA.gov is the U.S. government's official web portal to all federal, state and local government web resources and services.